Time;durP1;ratioP1;P1;durP2;ratioP2;P2;SDS_P1;SDS_P2;PMS_P1;PMS_P2;Temp;Humidity;BMP_temperature;BMP_pressure;BME280_temperature;BME280_humidity;BME280_pressure;Samples;Min_cycle;Max_cycle;Signal;HPM_P1;HPM_P2
2021/12/21 00:00:11;;;;;;;5.85;3.15;;;;;;;-0.36;69.73;100937.47;1637377;85;26085;-65
2021/12/21 00:02:37;;;;;;;4.50;2.50;;;;;;;-0.34;70.21;100935.59;1643362;85;25742;-65
2021/12/21 00:05:05;;;;;;;6.45;2.62;;;;;;;-0.38;70.95;100948.55;1642696;85;27429;-65
2021/12/21 00:07:31;;;;;;;13.53;2.55;;;;;;;-0.41;71.17;100948.66;1643217;85;25841;-65
2021/12/21 00:09:58;;;;;;;3.08;2.10;;;;;;;-0.39;71.08;100953.44;1641882;86;25841;-65
2021/12/21 00:12:28;;;;;;;3.83;1.90;;;;;;;-0.38;70.82;100969.23;1646022;85;26089;-65
2021/12/21 00:15:02;;;;;;;4.55;2.45;;;;;;;-0.39;70.99;100968.82;1648809;85;25529;-65
2021/12/21 00:17:47;;;;;;;6.03;2.75;;;;;;;-0.38;70.78;100977.62;1645916;85;27488;-65
2021/12/21 00:25:22;;;;;;;2.87;1.90;;;;;;;-0.37;69.63;100992.58;1655967;85;26227;-64
2021/12/21 00:27:52;;;;;;;3.40;2.12;;;;;;;-0.41;69.45;100994.48;1651557;85;25792;-65
2021/12/21 00:30:22;;;;;;;2.37;1.77;;;;;;;-0.43;69.37;100992.35;1634459;87;27557;-65
2021/12/21 00:32:49;;;;;;;2.35;1.67;;;;;;;-0.46;69.26;100998.22;1635744;86;25802;-64
2021/12/21 00:35:16;;;;;;;2.05;1.57;;;;;;;-0.51;69.21;101002.36;1634609;86;25702;-65
2021/12/21 00:37:45;;;;;;;3.05;1.80;;;;;;;-0.56;69.04;101012.23;1642131;85;26588;-65
2021/12/21 00:40:12;;;;;;;1.37;1.25;;;;;;;-0.58;69.03;101010.98;1664170;85;25865;-65
2021/12/21 00:42:39;;;;;;;3.60;1.50;;;;;;;-0.57;68.34;101013.15;1668896;84;27337;-65
2021/12/21 00:45:10;;;;;;;2.33;1.40;;;;;;;-0.55;68.07;101004.70;1658899;86;25822;-64
2021/12/21 00:47:41;;;;;;;2.83;1.40;;;;;;;-0.56;67.03;101024.13;1652054;85;25544;-65
2021/12/21 00:50:08;;;;;;;1.32;1.00;;;;;;;-0.57;65.95;101030.33;1658316;85;26779;-64
2021/12/21 00:52:35;;;;;;;3.83;1.32;;;;;;;-0.60;65.56;101022.06;1646437;85;25896;-65
2021/12/21 00:55:02;;;;;;;1.57;1.10;;;;;;;-0.62;65.20;101036.26;1680208;84;28296;-65
2021/12/21 00:57:31;;;;;;;2.00;1.12;;;;;;;-0.66;65.51;101041.64;1690993;84;25807;-64
2021/12/21 01:00:00;;;;;;;1.25;1.15;;;;;;;-0.64;65.49;101046.89;1690787;84;25886;-66
2021/12/21 01:02:29;;;;;;;1.95;1.37;;;;;;;-0.67;65.36;101046.52;1691295;84;26120;-65
2021/12/21 01:04:59;;;;;;;1.42;1.10;;;;;;;-0.72;64.92;101043.20;1692175;84;25804;-64
2021/12/21 01:07:35;;;;;;;1.02;0.93;;;;;;;-0.69;64.97;101050.15;1682720;84;27476;-64
2021/12/21 01:12:48;;;;;;;2.25;1.00;;;;;;;-0.71;64.68;101046.70;1621195;86;25891;-65
2021/12/21 01:17:59;;;;;;;1.07;0.93;;;;;;;-0.76;66.41;101071.96;1636984;86;25792;-66
2021/12/21 01:20:38;;;;;;;1.07;0.90;;;;;;;-0.92;66.26;101074.32;1629009;87;27615;-65
2021/12/21 01:26:03;;;;;;;2.00;1.17;;;;;;;-1.14;65.01;101086.95;1670637;83;25974;-65
2021/12/21 01:31:27;;;;;;;4.17;1.17;;;;;;;-1.23;64.61;101085.94;1680843;83;26208;-65
2021/12/21 01:36:47;;;;;;;2.72;1.57;;;;;;;-1.38;62.73;101101.84;1677435;84;25847;-65
2021/12/21 01:41:57;;;;;;;3.02;0.80;;;;;;;-1.51;61.10;101104.50;1677547;84;26236;-65
2021/12/21 01:49:44;;;;;;;0.75;0.70;;;;;;;-1.67;57.73;101115.55;1643590;84;25839;-65
2021/12/21 01:52:14;;;;;;;0.70;0.70;;;;;;;-1.79;57.82;101107.55;1644386;86;25736;-66
2021/12/21 01:54:42;;;;;;;1.52;0.90;;;;;;;-1.86;58.20;101109.13;1668139;84;26180;-66
2021/12/21 01:57:11;;;;;;;1.25;1.00;;;;;;;-1.91;57.83;101112.76;1642738;86;25776;-66
2021/12/21 01:59:41;;;;;;;5.90;1.40;;;;;;;-1.96;57.95;101119.97;1675597;83;27484;-66
2021/12/21 02:02:16;;;;;;;1.42;0.93;;;;;;;-1.95;58.68;101132.23;1604662;87;25837;-66
2021/12/21 02:04:49;;;;;;;2.70;1.13;;;;;;;-1.91;59.33;101139.60;1635464;85;25925;-66
2021/12/21 02:07:16;;;;;;;1.98;1.05;;;;;;;-1.90;58.37;101142.17;1670362;84;25952;-65
2021/12/21 02:09:45;;;;;;;3.20;1.00;;;;;;;-1.94;56.08;101141.00;1678683;83;25836;-66
2021/12/21 02:12:15;;;;;;;0.72;0.70;;;;;;;-2.02;55.89;101157.08;1682234;84;27469;-66
2021/12/21 02:14:52;;;;;;;1.00;0.72;;;;;;;-2.09;54.23;101159.45;1667735;85;25940;-66
2021/12/21 02:23:03;;;;;;;0.62;0.62;;;;;;;-2.31;53.03;101155.27;1652996;85;25851;-64
2021/12/21 02:28:12;;;;;;;3.80;1.00;;;;;;;-2.40;52.03;101169.13;1633094;86;25863;-66
2021/12/21 02:30:28;;;;;;;1.75;1.00;;;;;;;-2.42;52.92;101185.42;1632490;85;25830;-66
2021/12/21 02:32:55;;;;;;;2.95;1.62;;;;;;;-2.51;52.31;101189.66;1636872;86;26136;-66
2021/12/21 02:35:22;;;;;;;1.60;1.00;;;;;;;-2.59;52.93;101196.88;1637105;87;25808;-66
2021/12/21 02:37:48;;;;;;;1.30;0.85;;;;;;;-2.67;52.74;101195.78;1642193;86;27520;-66
2021/12/21 02:40:16;;;;;;;0.90;0.82;;;;;;;-2.73;53.44;101187.59;1641330;86;25923;-66
2021/12/21 02:42:43;;;;;;;0.98;0.70;;;;;;;-2.78;53.85;101187.30;1621044;86;25837;-66
2021/12/21 02:45:11;;;;;;;0.88;0.85;;;;;;;-2.86;54.25;101195.38;1592651;89;28143;-66
2021/12/21 02:47:40;;;;;;;1.67;1.00;;;;;;;-2.93;54.87;101196.45;1605395;88;25892;-66
2021/12/21 02:50:08;;;;;;;2.35;1.12;;;;;;;-2.98;55.24;101201.83;1595229;87;27485;-66
2021/12/21 02:52:36;;;;;;;1.60;1.00;;;;;;;-3.00;55.79;101212.84;1638531;87;25525;-66
2021/12/21 02:55:06;;;;;;;0.88;0.80;;;;;;;-3.08;56.28;101230.16;1624207;87;25849;-67
2021/12/21 02:57:33;;;;;;;1.40;1.00;;;;;;;-3.12;56.82;101221.91;1661912;85;26532;-66
2021/12/21 03:00:03;;;;;;;3.25;0.80;;;;;;;-3.14;56.86;101243.48;1617602;87;25814;-67
2021/12/21 03:02:31;;;;;;;1.15;0.90;;;;;;;-3.21;56.64;101236.61;1647745;85;27510;-66
2021/12/21 03:05:01;;;;;;;1.17;0.88;;;;;;;-3.22;57.19;101242.34;1626689;87;25787;-65
2021/12/21 03:10:15;;;;;;;1.10;0.90;;;;;;;-3.16;57.43;101257.13;1631463;87;26567;-66
2021/12/21 03:15:22;;;;;;;1.92;0.90;;;;;;;-3.08;57.96;101264.81;1647979;85;27494;-67
2021/12/21 03:17:51;;;;;;;1.25;1.07;;;;;;;-3.19;57.77;101267.70;1616826;87;25889;-67
2021/12/21 03:20:20;;;;;;;0.80;0.80;;;;;;;-3.21;58.27;101261.61;1641485;85;25746;-66
2021/12/21 03:22:48;;;;;;;0.93;0.80;;;;;;;-3.19;58.48;101265.96;1642786;86;26060;-65
2021/12/21 03:25:16;;;;;;;3.60;1.40;;;;;;;-3.22;58.51;101260.76;1643906;85;25918;-66
2021/12/21 03:27:43;;;;;;;1.75;1.02;;;;;;;-3.30;58.69;101278.49;1653160;85;28610;-65
2021/12/21 03:30:13;;;;;;;2.10;1.22;;;;;;;-3.31;58.98;101279.39;1656854;85;25809;-66
2021/12/21 03:32:42;;;;;;;1.85;1.10;;;;;;;-3.35;59.04;101284.29;1652033;85;25810;-66
2021/12/21 03:35:10;;;;;;;1.05;0.90;;;;;;;-3.46;59.39;101282.79;1659073;85;26069;-66
2021/12/21 03:37:37;;;;;;;6.28;1.25;;;;;;;-3.55;59.50;101290.87;1614963;88;25861;-66
2021/12/21 03:40:07;;;;;;;1.35;1.00;;;;;;;-3.62;59.58;101287.94;1694384;84;27570;-66
2021/12/21 03:42:35;;;;;;;2.17;1.07;;;;;;;-3.66;59.99;101293.72;1676830;84;25865;-66
2021/12/21 03:45:03;;;;;;;1.02;0.93;;;;;;;-3.75;59.90;101286.48;1673435;83;25811;-66
2021/12/21 03:47:31;;;;;;;1.20;0.75;;;;;;;-3.77;60.03;101293.09;1688017;84;26085;-65
2021/12/21 03:50:01;;;;;;;1.10;0.95;;;;;;;-3.75;60.22;101301.80;1697758;84;25967;-66
2021/12/21 03:52:29;;;;;;;1.20;0.90;;;;;;;-3.77;60.09;101297.89;1677839;83;28208;-65
2021/12/21 03:55:04;;;;;;;1.40;1.20;;;;;;;-3.76;59.87;101296.11;1688388;83;25814;-65
2021/12/21 03:57:29;;;;;;;1.70;1.10;;;;;;;-3.82;59.26;101302.39;1651131;84;25817;-65
2021/12/21 03:59:58;;;;;;;1.30;1.05;;;;;;;-3.84;59.58;101292.34;1686090;83;26116;-65
2021/12/21 04:02:26;;;;;;;1.55;1.10;;;;;;;-3.85;59.22;101306.81;1658422;85;25785;-65
2021/12/21 04:04:58;;;;;;;2.33;1.10;;;;;;;-3.92;58.76;101311.35;1685474;84;26928;-65
2021/12/21 04:07:28;;;;;;;3.25;1.15;;;;;;;-3.96;58.79;101314.92;1651602;84;25810;-65
2021/12/21 04:09:55;;;;;;;1.30;1.00;;;;;;;-4.01;58.59;101305.81;1662150;85;25903;-65
2021/12/21 04:12:22;;;;;;;2.83;1.47;;;;;;;-4.09;58.38;101315.17;1664290;85;26089;-64
2021/12/21 04:14:52;;;;;;;1.85;1.00;;;;;;;-4.08;58.78;101304.20;1632867;87;25749;-65
2021/12/21 04:17:24;;;;;;;1.62;0.90;;;;;;;-4.07;58.71;101324.34;1625534;86;45364;-65
2021/12/21 04:19:52;;;;;;;1.77;1.12;;;;;;;-4.11;58.72;101314.34;1665074;85;25852;-66
2021/12/21 04:22:20;;;;;;;2.65;1.25;;;;;;;-4.11;58.69;101314.77;1652856;86;25773;-65
2021/12/21 04:24:48;;;;;;;1.85;1.02;;;;;;;-4.17;58.42;101315.73;1641482;85;26745;-65
2021/12/21 04:27:16;;;;;;;2.80;1.20;;;;;;;-4.17;58.86;101318.37;1637298;86;25754;-65
2021/12/21 04:29:44;;;;;;;2.08;1.15;;;;;;;-4.19;58.55;101329.81;1658321;85;28182;-67
2021/12/21 04:32:11;;;;;;;2.75;1.10;;;;;;;-4.22;58.87;101338.62;1661038;85;26257;-67
2021/12/21 04:34:39;;;;;;;2.67;1.35;;;;;;;-4.23;58.85;101332.94;1633537;85;25719;-66
2021/12/21 04:37:09;;;;;;;3.33;1.70;;;;;;;-4.21;58.76;101332.47;1636732;87;26111;-66
2021/12/21 04:39:46;;;;;;;4.78;2.10;;;;;;;-4.18;58.95;101338.11;1635233;86;25914;-67
2021/12/21 04:42:08;;;;;;;8.75;2.95;;;;;;;-4.17;58.77;101339.39;1634034;86;28345;-67
2021/12/21 04:44:35;;;;;;;3.02;1.77;;;;;;;-4.16;58.43;101341.59;1627722;87;25831;-67
2021/12/21 04:47:04;;;;;;;2.35;1.12;;;;;;;-4.10;58.75;101339.72;1629833;87;25863;-66
2021/12/21 04:49:33;;;;;;;3.85;1.37;;;;;;;-4.06;58.56;101342.27;1633663;87;26088;-66
2021/12/21 04:52:00;;;;;;;5.12;1.30;;;;;;;-4.04;58.47;101351.88;1633499;87;25867;-66
2021/12/21 04:54:27;;;;;;;4.67;1.52;;;;;;;-4.01;58.38;101350.95;1634299;86;28206;-65
2021/12/21 04:56:53;;;;;;;4.58;1.47;;;;;;;-3.98;58.49;101364.02;1634954;87;25536;-66
2021/12/21 04:59:20;;;;;;;4.33;1.52;;;;;;;-3.98;58.43;101367.95;1639121;87;25757;-65
2021/12/21 05:01:48;;;;;;;3.25;1.15;;;;;;;-4.00;58.23;101375.03;1638972;86;26167;-65
2021/12/21 05:04:15;;;;;;;1.55;1.30;;;;;;;-4.02;58.35;101386.87;1637902;86;25808;-65
2021/12/21 05:06:44;;;;;;;7.53;1.50;;;;;;;-4.02;58.60;101403.09;1635306;86;28175;-66
2021/12/21 05:09:22;;;;;;;2.90;1.55;;;;;;;-4.04;58.64;101391.73;1632852;87;25904;-66
2021/12/21 05:11:44;;;;;;;2.95;1.50;;;;;;;-4.10;58.83;101394.91;1666127;84;25835;-66
2021/12/21 05:14:10;;;;;;;5.78;1.50;;;;;;;-4.15;59.04;101401.12;1677413;83;26122;-65
2021/12/21 05:16:37;;;;;;;5.47;2.20;;;;;;;-4.19;59.27;101408.63;1670354;84;25790;-65
2021/12/21 05:19:07;;;;;;;5.35;1.87;;;;;;;-4.27;59.53;101407.01;1680624;83;27480;-66
2021/12/21 05:21:35;;;;;;;3.80;1.80;;;;;;;-4.32;59.77;101412.80;1679473;84;25887;-66
2021/12/21 05:24:02;;;;;;;4.20;1.90;;;;;;;-4.35;60.12;101414.61;1685155;83;25752;-65
2021/12/21 05:26:29;;;;;;;2.47;1.55;;;;;;;-4.38;60.49;101406.77;1658698;83;26370;-66
2021/12/21 05:28:57;;;;;;;4.25;1.90;;;;;;;-4.43;60.87;101422.14;1634847;85;25835;-65
2021/12/21 05:31:25;;;;;;;4.20;2.02;;;;;;;-4.43;61.01;101432.65;1642504;85;27505;-66
2021/12/21 05:33:57;;;;;;;4.12;2.05;;;;;;;-4.44;61.17;101419.09;1656640;85;25733;-67
2021/12/21 05:36:24;;;;;;;5.37;2.22;;;;;;;-4.44;61.38;101436.16;1643752;84;25784;-67
2021/12/21 05:38:58;;;;;;;3.70;1.70;;;;;;;-4.48;61.61;101438.89;1644633;84;26087;-64
2021/12/21 05:41:28;;;;;;;10.85;4.55;;;;;;;-4.47;61.64;101453.30;1640728;85;25948;-67
2021/12/21 05:43:56;;;;;;;5.45;2.70;;;;;;;-4.47;61.91;101445.84;1639442;86;28618;-66
2021/12/21 05:46:23;;;;;;;16.55;4.10;;;;;;;-4.43;62.58;101453.66;1606706;88;25832;-67
2021/12/21 05:48:55;;;;;;;12.98;3.80;;;;;;;-4.39;62.21;101458.42;1658643;85;25767;-65
2021/12/21 05:51:23;;;;;;;5.50;2.40;;;;;;;-4.36;62.66;101461.00;1654952;86;26019;-66
2021/12/21 05:53:50;;;;;;;11.18;4.28;;;;;;;-4.30;62.60;101462.67;1678653;84;25822;-65
2021/12/21 05:56:19;;;;;;;6.03;2.70;;;;;;;-4.29;62.21;101464.41;1674263;85;27565;-64
2021/12/21 05:58:45;;;;;;;5.83;2.90;;;;;;;-4.26;61.93;101470.95;1671417;85;25754;-66
2021/12/21 06:01:13;;;;;;;17.75;5.45;;;;;;;-4.23;61.82;101463.45;1642366;86;25904;-65
2021/12/21 06:03:43;;;;;;;7.55;3.08;;;;;;;-4.28;61.28;101472.27;1655045;85;26094;-65
2021/12/21 06:06:14;;;;;;;8.83;3.47;;;;;;;-4.30;61.53;101478.44;1647724;85;25856;-66
2021/12/21 06:08:42;;;;;;;6.87;2.80;;;;;;;-4.30;61.65;101487.63;1652503;84;27618;-65
2021/12/21 06:11:10;;;;;;;5.90;3.05;;;;;;;-4.26;61.62;101487.56;1643373;85;25887;-64
2021/12/21 06:22:43;;;;;;;7.47;2.70;;;;;;;-4.25;61.26;101496.30;1630281;86;26171;-65
2021/12/21 06:27:12;;;;;;;5.03;2.67;;;;;;;-3.86;61.17;101499.19;1660376;85;25952;-65
2021/12/21 06:29:45;;;;;;;2.02;1.52;;;;;;;-3.71;61.36;101510.33;1687576;84;26821;-64
2021/12/21 06:32:15;;;;;;;6.12;0.95;;;;;;;-3.62;61.82;101504.91;1635430;86;25965;-63
2021/12/21 06:34:43;;;;;;;5.85;2.77;;;;;;;-3.58;62.83;101507.91;1648741;86;27495;-66
2021/12/21 06:37:12;;;;;;;7.72;3.55;;;;;;;-3.58;63.27;101514.92;1646374;86;25822;-66
2021/12/21 06:39:41;;;;;;;6.70;2.55;;;;;;;-3.55;63.41;101520.14;1688363;84;25872;-65
2021/12/21 06:42:10;;;;;;;2.65;1.87;;;;;;;-3.51;64.00;101511.31;1677266;84;26099;-65
2021/12/21 06:44:43;;;;;;;4.65;2.25;;;;;;;-3.44;64.78;101521.25;1658512;85;25766;-66
2021/12/21 06:52:46;;;;;;;9.93;4.17;;;;;;;-3.36;64.19;101521.55;1637267;87;25788;-66
2021/12/21 06:55:15;;;;;;;8.00;3.87;;;;;;;-3.44;64.19;101532.66;1662467;85;26900;-66
2021/12/21 06:57:43;;;;;;;6.78;3.10;;;;;;;-3.44;64.38;101538.35;1666104;84;25812;-66
2021/12/21 07:00:14;;;;;;;10.03;4.58;;;;;;;-3.49;64.48;101537.12;1662979;84;27448;-67
2021/12/21 07:02:42;;;;;;;11.40;5.33;;;;;;;-3.49;64.55;101539.75;1641985;85;26567;-66
2021/12/21 07:05:11;;;;;;;13.53;5.62;;;;;;;-3.50;64.81;101545.47;1667097;84;25856;-65
2021/12/21 07:07:38;;;;;;;19.50;6.83;;;;;;;-3.55;65.02;101539.87;1629441;85;26126;-65
2021/12/21 07:10:11;;;;;;;9.00;4.75;;;;;;;-3.62;65.23;101539.98;1634635;86;25834;-66
2021/12/21 07:18:24;;;;;;;13.88;6.00;;;;;;;-3.62;65.06;101533.84;1678692;84;26178;-65
2021/12/21 07:20:41;;;;;;;16.37;6.10;;;;;;;-3.55;65.11;101538.55;1685883;84;26759;-64
2021/12/21 07:23:08;;;;;;;26.20;11.93;;;;;;;-3.47;64.37;101544.11;1640776;86;26478;-65
2021/12/21 07:25:35;;;;;;;16.48;5.20;;;;;;;-3.46;63.93;101537.07;1666295;84;27565;-64
2021/12/21 07:28:04;;;;;;;11.22;4.78;;;;;;;-3.36;63.61;101539.11;1664631;84;25816;-64
2021/12/21 07:30:31;;;;;;;9.83;4.42;;;;;;;-3.34;63.13;101543.44;1677323;84;25892;-64
2021/12/21 07:32:57;;;;;;;5.37;2.30;;;;;;;-3.20;63.38;101540.55;1660739;85;28167;-66
2021/12/21 07:35:24;;;;;;;4.00;2.12;;;;;;;-3.08;62.79;101542.08;1642521;86;25783;-66
2021/12/21 07:37:51;;;;;;;14.73;3.47;;;;;;;-3.01;62.56;101541.05;1673482;84;27562;-66
2021/12/21 07:40:20;;;;;;;4.72;2.37;;;;;;;-2.95;61.75;101536.55;1634601;86;25962;-62
2021/12/21 07:42:47;;;;;;;4.53;2.85;;;;;;;-2.87;61.54;101545.20;1646272;84;25799;-63
2021/12/21 07:45:14;;;;;;;5.85;2.90;;;;;;;-2.84;59.56;101547.74;1634377;86;26112;-62
2021/12/21 07:47:42;;;;;;;8.68;2.00;;;;;;;-2.86;59.38;101541.20;1638337;85;25820;-63
2021/12/21 07:50:11;;;;;;;4.03;2.37;;;;;;;-2.84;57.85;101555.22;1638376;85;27460;-64
2021/12/21 07:52:39;;;;;;;6.35;2.58;;;;;;;-2.79;57.55;101547.22;1639705;85;25796;-64
2021/12/21 07:55:07;;;;;;;4.78;2.40;;;;;;;-2.74;56.30;101548.45;1647337;85;26463;-64
2021/12/21 07:57:37;;;;;;;2.92;1.92;;;;;;;-2.70;56.04;101539.56;1672656;83;26777;-64
2021/12/21 08:00:07;;;;;;;7.28;2.65;;;;;;;-2.62;55.99;101551.27;1654363;84;25806;-64
2021/12/21 08:02:41;;;;;;;4.85;2.40;;;;;;;-2.53;56.22;101545.34;1630243;86;27512;-62
2021/12/21 08:05:12;;;;;;;8.28;2.33;;;;;;;-2.43;55.54;101543.82;1648856;85;25748;-63
2021/12/21 08:07:48;;;;;;;5.50;2.35;;;;;;;-2.33;53.44;101555.05;1663954;84;25988;-63
2021/12/21 08:10:29;;;;;;;4.75;2.25;;;;;;;-2.32;54.81;101555.44;1650589;85;26502;-63
2021/12/21 08:12:55;;;;;;;5.95;2.67;;;;;;;-2.17;55.67;101542.36;1669196;84;25835;-64
2021/12/21 08:15:24;;;;;;;6.10;2.42;;;;;;;-2.01;54.78;101550.79;1658589;84;27179;-63
2021/12/21 08:17:51;;;;;;;6.03;2.95;;;;;;;-1.91;53.26;101551.84;1675470;83;25986;-64
2021/12/21 08:20:18;;;;;;;5.37;2.50;;;;;;;-1.97;51.06;101549.83;1665032;84;25513;-64
2021/12/21 08:22:45;;;;;;;18.70;6.53;;;;;;;-1.92;51.16;101563.77;1626119;86;26118;-67
2021/12/21 08:25:12;;;;;;;6.22;3.22;;;;;;;-1.92;51.73;101557.17;1631484;85;25766;-65
2021/12/21 08:27:41;;;;;;;12.53;3.62;;;;;;;-1.93;50.07;101558.06;1631588;85;27519;-65
2021/12/21 08:30:11;;;;;;;10.98;4.30;;;;;;;-1.98;50.36;101561.28;1641882;85;26054;-64
2021/12/21 08:32:38;;;;;;;3.83;2.42;;;;;;;-2.01;50.32;101558.23;1643410;85;25581;-65
2021/12/21 08:35:07;;;;;;;3.92;2.17;;;;;;;-1.97;49.78;101561.23;1639803;84;26115;-65
2021/12/21 08:37:35;;;;;;;5.37;2.20;;;;;;;-1.91;50.01;101567.67;1647855;85;25558;-65
2021/12/21 08:40:04;;;;;;;4.42;2.15;;;;;;;-1.84;51.03;101564.91;1649828;85;27504;-65
2021/12/21 08:42:32;;;;;;;6.78;2.90;;;;;;;-1.77;50.59;101563.84;1664409;85;25787;-65
2021/12/21 08:45:01;;;;;;;7.65;3.00;;;;;;;-1.81;47.79;101570.09;1664491;84;25998;-65
2021/12/21 08:47:28;;;;;;;5.08;2.30;;;;;;;-2.02;47.90;101578.06;1656478;85;27127;-63
2021/12/21 08:49:55;;;;;;;3.95;2.50;;;;;;;-2.09;48.65;101584.80;1619340;85;26407;-65
2021/12/21 08:52:22;;;;;;;6.72;2.10;;;;;;;-2.04;48.46;101582.06;1667958;84;27463;-65
2021/12/21 08:54:49;;;;;;;7.20;2.75;;;;;;;-1.99;48.53;101579.31;1666162;84;25815;-64
2021/12/21 08:57:16;;;;;;;5.45;2.42;;;;;;;-1.95;48.20;101577.89;1660498;85;25532;-65
2021/12/21 08:59:43;;;;;;;11.12;2.85;;;;;;;-1.88;48.85;101577.27;1644417;85;26731;-64
2021/12/21 09:02:11;;;;;;;6.92;2.95;;;;;;;-1.85;49.21;101567.12;1666571;84;25932;-64
2021/12/21 09:04:44;;;;;;;10.30;2.80;;;;;;;-1.87;48.91;101566.29;1656698;84;28106;-64
2021/12/21 09:07:11;;;;;;;7.37;2.90;;;;;;;-1.81;49.50;101568.34;1666731;84;25841;-62
2021/12/21 09:09:38;;;;;;;9.90;3.83;;;;;;;-1.32;48.93;101555.67;1669716;84;26439;-63
2021/12/21 09:12:08;;;;;;;13.98;3.35;;;;;;;-0.86;47.56;101566.75;1654026;85;26709;-63
2021/12/21 09:14:34;;;;;;;8.93;3.22;;;;;;;-1.00;47.74;101555.24;1662029;85;25794;-64
2021/12/21 09:17:03;;;;;;;12.18;5.40;;;;;;;-0.99;48.25;101558.30;1672330;84;27495;-63
2021/12/21 09:19:31;;;;;;;14.28;5.35;;;;;;;-1.00;47.00;101564.95;1688733;84;25763;-61
2021/12/21 09:21:58;;;;;;;15.72;6.53;;;;;;;-1.21;46.00;101564.62;1682563;84;25830;-63
2021/12/21 09:24:25;;;;;;;14.40;4.80;;;;;;;-1.30;47.45;101568.82;1687562;84;26145;-64
2021/12/21 09:26:51;;;;;;;9.88;5.12;;;;;;;-1.35;47.79;101562.81;1668369;84;25957;-64
2021/12/21 09:29:23;;;;;;;9.05;4.20;;;;;;;-1.47;47.83;101568.81;1672496;83;28232;-64
2021/12/21 09:31:50;;;;;;;7.05;3.35;;;;;;;-1.40;48.32;101571.28;1654486;84;25747;-63
2021/12/21 09:34:16;;;;;;;9.08;2.12;;;;;;;-1.34;48.51;101561.44;1650437;84;25860;-63
2021/12/21 09:36:46;;;;;;;6.05;2.02;;;;;;;-1.30;47.45;101555.63;1639922;84;26795;-63
2021/12/21 09:39:13;;;;;;;7.97;3.60;;;;;;;-1.27;48.17;101562.16;1642530;84;25785;-64
2021/12/21 09:41:40;;;;;;;14.93;3.58;;;;;;;-1.28;46.38;101564.38;1649429;85;27483;-63
2021/12/21 09:44:07;;;;;;;4.25;2.22;;;;;;;-1.35;47.01;101554.42;1647452;85;25453;-64
2021/12/21 09:46:34;;;;;;;7.08;2.65;;;;;;;-1.26;47.08;101555.97;1648706;86;25806;-64
2021/12/21 09:49:00;;;;;;;17.55;8.48;;;;;;;-1.33;45.61;101551.30;1671722;84;26132;-63
2021/12/21 09:51:27;;;;;;;4.37;2.50;;;;;;;-1.35;46.10;101561.02;1652861;85;25999;-64
2021/12/21 09:53:56;;;;;;;6.87;2.90;;;;;;;-1.49;45.49;101567.97;1652221;86;27477;-64
2021/12/21 09:56:23;;;;;;;6.95;3.08;;;;;;;-1.48;46.39;101574.14;1641310;86;25801;-62
2021/12/21 09:58:51;;;;;;;5.47;2.40;;;;;;;-1.54;45.77;101566.35;1652564;85;25800;-63
2021/12/21 10:01:20;;;;;;;14.68;2.50;;;;;;;-1.61;46.01;101557.28;1661365;84;26095;-63
2021/12/21 10:03:47;;;;;;;10.58;4.62;;;;;;;-1.61;46.63;101556.40;1657514;85;25755;-63
2021/12/21 10:06:15;;;;;;;6.72;3.00;;;;;;;-1.81;45.30;101564.38;1662754;85;27480;-63
2021/12/21 10:08:42;;;;;;;5.50;3.00;;;;;;;-2.07;45.49;101564.98;1659381;85;25921;-63
2021/12/21 10:11:23;;;;;;;11.48;3.25;;;;;;;-2.14;46.62;101554.16;1657484;86;25761;-63
2021/12/21 10:13:50;;;;;;;6.70;3.08;;;;;;;-2.17;46.96;101552.48;1657498;84;26067;-63
2021/12/21 10:16:22;;;;;;;5.28;2.92;;;;;;;-2.26;46.97;101554.86;1610612;88;25908;-62
2021/12/21 10:18:49;;;;;;;7.40;3.58;;;;;;;-2.39;47.26;101554.73;1623682;84;28399;-63
2021/12/21 10:21:18;;;;;;;8.18;2.90;;;;;;;-2.45;47.49;101557.04;1654596;86;25751;-63
2021/12/21 10:23:48;;;;;;;6.75;2.95;;;;;;;-2.44;46.98;101548.23;1661837;85;25780;-63
2021/12/21 10:26:29;;;;;;;14.70;3.30;;;;;;;-2.51;45.82;101554.55;1660121;85;26743;-63
2021/12/21 10:29:05;;;;;;;8.00;3.65;;;;;;;-2.48;46.51;101545.70;1659512;85;25821;-64
2021/12/21 10:31:38;;;;;;;5.67;3.22;;;;;;;-2.44;47.25;101542.08;1659215;85;27458;-62
2021/12/21 10:34:12;;;;;;;4.60;2.52;;;;;;;-2.44;45.98;101542.08;1657101;85;25792;-63
2021/12/21 10:36:53;;;;;;;5.00;2.15;;;;;;;-2.47;45.74;101544.34;1655486;85;25753;-63
2021/12/21 10:39:24;;;;;;;6.62;3.10;;;;;;;-2.41;46.96;101550.78;1657939;86;26068;-63
2021/12/21 10:41:53;;;;;;;4.58;2.25;;;;;;;-2.28;46.72;101546.11;1652697;86;26772;-63
2021/12/21 10:44:20;;;;;;;7.12;3.15;;;;;;;-2.12;46.88;101548.42;1625767;85;27479;-63
2021/12/21 10:46:53;;;;;;;9.50;3.85;;;;;;;-1.99;46.58;101551.63;1657982;85;25943;-63
2021/12/21 10:49:26;;;;;;;6.72;3.20;;;;;;;-2.03;45.30;101557.86;1660391;84;25733;-63
2021/12/21 10:52:05;;;;;;;7.03;2.92;;;;;;;-2.11;45.75;101556.28;1662654;85;26086;-63
2021/12/21 10:54:44;;;;;;;9.15;4.17;;;;;;;-2.02;46.57;101552.58;1658892;85;25822;-62
2021/12/21 10:57:29;;;;;;;5.15;3.10;;;;;;;-1.98;45.98;101555.53;1658625;84;28183;-63
2021/12/21 10:59:57;;;;;;;7.92;3.12;;;;;;;-1.90;46.12;101557.54;1655122;86;25765;-62
2021/12/21 11:02:30;;;;;;;6.60;3.60;;;;;;;-1.94;44.85;101561.17;1663878;85;25828;-63
2021/12/21 11:05:08;;;;;;;5.55;3.35;;;;;;;-1.98;44.98;101552.05;1636315;85;26080;-62
2021/12/21 11:10:30;;;;;;;13.48;4.70;;;;;;;-2.02;45.16;101549.05;1663288;85;33716;-63
2021/12/21 11:13:05;;;;;;;8.90;2.95;;;;;;;-2.08;45.45;101557.97;1661295;85;25710;-62
2021/12/21 11:15:42;;;;;;;9.78;3.70;;;;;;;-2.20;46.12;101548.58;1661364;85;25784;-63
2021/12/21 11:18:16;;;;;;;9.18;3.52;;;;;;;-2.43;47.63;101556.56;1664856;85;26127;-63
2021/12/21 11:20:48;;;;;;;10.72;3.80;;;;;;;-2.53;47.78;101568.20;1660721;85;25807;-63
2021/12/21 11:23:18;;;;;;;19.95;3.42;;;;;;;-2.66;47.42;101579.44;1662556;85;27431;-62
2021/12/21 11:25:53;;;;;;;10.70;5.25;;;;;;;-2.63;47.72;101567.50;1628651;85;25881;-63
2021/12/21 11:28:27;;;;;;;8.73;3.95;;;;;;;-2.52;48.28;101561.56;1632847;87;25861;-62
2021/12/21 11:31:03;;;;;;;8.80;3.92;;;;;;;-2.48;47.87;101553.14;1629695;85;26102;-62
2021/12/21 11:33:36;;;;;;;13.83;4.97;;;;;;;-2.43;48.10;101556.56;1662663;85;25665;-63
2021/12/21 11:38:52;;;;;;;7.62;4.42;;;;;;;-2.36;47.92;101561.22;1642875;85;25591;-63
2021/12/21 11:41:20;;;;;;;8.05;3.08;;;;;;;-2.42;48.36;101558.27;1662608;85;25888;-63
2021/12/21 11:43:59;;;;;;;4.90;3.25;;;;;;;-2.45;48.40;101563.62;1628412;85;26188;-64
2021/12/21 11:46:38;;;;;;;7.78;2.50;;;;;;;-2.48;48.86;101570.27;1659537;84;25846;-62
2021/12/21 11:49:22;;;;;;;6.87;3.10;;;;;;;-2.34;48.97;101567.80;1655432;84;27438;-64
2021/12/21 11:51:49;;;;;;;12.30;3.08;;;;;;;-2.12;48.72;101569.05;1651515;86;25932;-63
2021/12/21 11:54:22;;;;;;;3.70;2.65;;;;;;;-1.98;47.63;101571.36;1659958;85;26078;-64
2021/12/21 11:56:48;;;;;;;3.65;2.25;;;;;;;-1.80;47.64;101560.84;1661996;85;26836;-64
2021/12/21 11:59:22;;;;;;;9.38;2.65;;;;;;;-1.71;46.77;101558.41;1663579;85;25550;-63
2021/12/21 12:01:49;;;;;;;7.37;2.70;;;;;;;-1.71;46.05;101570.75;1661939;85;33580;-63
2021/12/21 12:04:16;;;;;;;5.00;2.35;;;;;;;-1.55;46.22;101577.38;1659131;85;25918;-63
2021/12/21 12:06:54;;;;;;;5.95;2.22;;;;;;;-1.43;44.24;101569.59;1652910;84;25883;-63
2021/12/21 12:09:28;;;;;;;8.98;2.37;;;;;;;-1.32;43.68;101578.11;1657847;84;26133;-64
2021/12/21 12:12:09;;;;;;;10.28;2.65;;;;;;;-1.24;41.63;101593.73;1658389;86;25833;-63
2021/12/21 12:14:38;;;;;;;6.70;3.33;;;;;;;-1.27;40.38;101588.55;1638573;86;27506;-63
2021/12/21 12:17:15;;;;;;;5.40;2.90;;;;;;;-1.36;40.63;101599.34;1642217;85;25881;-63
2021/12/21 12:19:57;;;;;;;4.90;3.27;;;;;;;-1.55;40.54;101583.09;1639290;85;25752;-63
2021/12/21 12:22:44;;;;;;;10.72;5.95;;;;;;;-1.68;40.20;101591.76;1661365;85;26538;-63
2021/12/21 12:25:24;;;;;;;5.22;2.22;;;;;;;-1.84;40.64;101592.60;1658987;85;25809;-62
2021/12/21 12:27:54;;;;;;;9.88;3.60;;;;;;;-1.87;40.47;101592.66;1658539;85;28236;-63
2021/12/21 12:30:24;;;;;;;7.10;2.52;;;;;;;-1.91;40.65;101586.59;1660472;85;26466;-63
2021/12/21 12:33:06;;;;;;;11.40;3.20;;;;;;;-1.87;40.90;101595.30;1661478;85;25761;-61
2021/12/21 12:35:36;;;;;;;5.25;2.67;;;;;;;-1.94;40.95;101582.27;1662041;85;26178;-63
2021/12/21 12:38:20;;;;;;;10.30;4.72;;;;;;;-2.05;41.21;101599.63;1663349;84;26138;-65
2021/12/21 12:40:53;;;;;;;;;;;;;;;-2.10;41.62;101603.27;1663816;85;27505;-65
2021/12/21 12:43:24;;;;;;;5.15;2.77;;;;;;;-2.22;41.93;101603.98;1619963;85;25901;-63